Time;durP1;ratioP1;P1;durP2;ratioP2;P2;SDS_P1;SDS_P2;PMS_P1;PMS_P2;Temp;Humidity;BMP_temperature;BMP_pressure;BME280_temperature;BME280_humidity;BME280_pressure;Samples;Min_cycle;Max_cycle;Signal;HPM_P1;HPM_P2
2022/10/04 00:00:37;;;;;;;11.55;2.35;;;12.40;99.90;;;;;;5111282;27;20285;-62
2022/10/04 00:03:09;;;;;;;6.60;1.60;;;12.40;99.90;;;;;;5113218;27;20050;-63
2022/10/04 00:05:35;;;;;;;5.93;1.70;;;12.40;99.90;;;;;;5080215;28;20047;-62
2022/10/04 00:08:23;;;;;;;8.65;2.10;;;12.40;99.90;;;;;;5121800;27;20046;-63
2022/10/04 00:10:49;;;;;;;;;;;12.40;99.90;;;;;;5095208;27;20693;-62
2022/10/04 00:13:23;;;;;;;10.45;2.05;;;12.30;99.90;;;;;;5109132;28;19916;-70
2022/10/04 00:15:48;;;;;;;8.15;2.10;;;12.40;99.90;;;;;;5088058;27;20135;-70
2022/10/04 00:18:41;;;;;;;11.27;2.22;;;12.30;99.90;;;;;;5108650;27;20166;-69
2022/10/04 00:21:07;;;;;;;10.30;2.20;;;12.30;99.90;;;;;;5122328;27;20047;-70
2022/10/04 00:23:36;;;;;;;12.35;2.60;;;12.30;99.90;;;;;;5098242;27;20051;-70
2022/10/04 00:26:21;;;;;;;12.30;2.38;;;12.30;99.90;;;;;;5128962;27;20057;-69
2022/10/04 00:28:48;;;;;;;8.13;2.22;;;12.20;99.90;;;;;;5120809;27;20463;-69
2022/10/04 00:31:31;;;;;;;11.07;2.03;;;12.20;99.90;;;;;;5123472;27;20399;-69
2022/10/04 00:34:07;;;;;;;9.10;2.10;;;12.20;99.90;;;;;;5119801;27;20070;-65
2022/10/04 00:36:47;;;;;;;8.52;2.10;;;12.20;99.90;;;;;;5129882;27;20047;-66
2022/10/04 00:39:14;;;;;;;7.30;1.83;;;12.10;99.90;;;;;;5129120;27;20110;-65
2022/10/04 00:41:46;;;;;;;7.20;2.60;;;12.10;99.90;;;;;;5123392;27;20047;-66
2022/10/04 00:44:20;;;;;;;10.07;1.98;;;12.10;99.90;;;;;;5121271;27;20118;-67
2022/10/04 00:46:46;;;;;;;8.32;2.13;;;12.10;99.90;;;;;;5125876;27;20102;-66
2022/10/04 00:49:11;;;;;;;11.60;2.35;;;12.10;99.90;;;;;;5107839;28;20497;-66
2022/10/04 00:51:44;;;;;;;11.38;2.42;;;12.10;99.90;;;;;;5088087;28;20059;-65
2022/10/04 00:54:19;;;;;;;7.10;1.88;;;12.10;99.90;;;;;;5128313;27;20376;-66
2022/10/04 00:56:52;;;;;;;6.50;2.67;;;12.10;99.90;;;;;;5079030;27;20061;-65
2022/10/04 00:59:32;;;;;;;8.32;2.10;;;12.00;99.90;;;;;;5128346;27;20138;-66
2022/10/04 01:02:04;;;;;;;8.48;2.10;;;12.00;99.90;;;;;;5118601;27;20073;-66
2022/10/04 01:04:47;;;;;;;8.80;1.92;;;12.00;99.90;;;;;;5112424;27;20046;-65
2022/10/04 01:07:14;;;;;;;6.20;1.73;;;11.90;99.90;;;;;;5096449;27;20042;-66
2022/10/04 01:09:45;;;;;;;6.63;2.10;;;11.90;99.90;;;;;;5093943;27;20043;-66
2022/10/04 01:12:44;;;;;;;8.10;2.03;;;11.90;99.90;;;;;;5092687;28;20043;-65
2022/10/04 01:15:25;;;;;;;10.95;2.13;;;11.90;99.90;;;;;;5074752;27;20039;-66
2022/10/04 01:18:19;;;;;;;5.78;2.00;;;11.90;99.90;;;;;;5128699;27;20043;-65
2022/10/04 01:21:02;;;;;;;12.18;2.08;;;12.00;99.90;;;;;;5127070;27;20039;-65
2022/10/04 01:23:42;;;;;;;10.38;2.15;;;12.00;99.90;;;;;;5130506;27;20050;-66
2022/10/04 01:26:29;;;;;;;8.45;2.00;;;12.00;99.90;;;;;;5111917;27;20414;-67
2022/10/04 01:29:11;;;;;;;7.35;1.77;;;12.00;99.90;;;;;;5123328;27;20372;-67
2022/10/04 01:31:47;;;;;;;8.93;2.38;;;12.00;99.90;;;;;;5110214;27;20043;-66
2022/10/04 01:34:18;;;;;;;6.72;1.70;;;11.90;99.90;;;;;;5122005;27;20055;-66
2022/10/04 01:36:45;;;;;;;6.68;2.22;;;11.90;99.90;;;;;;5121877;27;20089;-66
2022/10/04 01:39:13;;;;;;;10.43;1.80;;;12.00;99.90;;;;;;5093249;27;20049;-66
2022/10/04 01:41:44;;;;;;;6.73;2.20;;;12.00;99.90;;;;;;5117630;27;20089;-65
2022/10/04 01:44:18;;;;;;;8.02;1.92;;;12.00;99.90;;;;;;5123144;27;20063;-67
2022/10/04 01:46:44;;;;;;;8.90;1.60;;;11.90;99.90;;;;;;5108503;27;20732;-66
2022/10/04 01:49:12;;;;;;;6.85;1.60;;;11.90;99.90;;;;;;5104491;28;20080;-65
2022/10/04 01:52:09;;;;;;;7.57;1.73;;;11.90;99.90;;;;;;5110021;27;20058;-66
2022/10/04 01:54:38;;;;;;;8.30;2.58;;;11.80;99.90;;;;;;5100949;28;20051;-66
2022/10/04 01:57:22;;;;;;;5.75;1.65;;;11.80;99.90;;;;;;5105918;28;20074;-66
2022/10/04 01:59:52;;;;;;;11.18;1.83;;;11.80;99.90;;;;;;5119725;27;20158;-65
2022/10/04 02:02:24;;;;;;;8.40;1.60;;;11.80;99.90;;;;;;5121447;27;20074;-66
2022/10/04 02:04:52;;;;;;;7.15;2.08;;;11.80;99.90;;;;;;5124836;27;20048;-65
2022/10/04 02:07:18;;;;;;;5.60;1.60;;;11.80;99.90;;;;;;5098767;28;20078;-66
2022/10/04 02:09:45;;;;;;;7.80;1.80;;;11.70;99.90;;;;;;5105774;28;20494;-66
2022/10/04 02:12:15;;;;;;;5.40;1.60;;;11.70;99.90;;;;;;5109341;28;20047;-66
2022/10/04 02:14:54;;;;;;;8.90;1.50;;;11.60;99.90;;;;;;5106375;28;20043;-65
2022/10/04 02:17:27;;;;;;;9.02;1.63;;;11.60;99.90;;;;;;5106170;28;20057;-65
2022/10/04 02:19:53;;;;;;;6.28;1.75;;;11.60;99.90;;;;;;5115281;28;20048;-66
2022/10/04 02:22:18;;;;;;;9.82;1.52;;;11.60;99.90;;;;;;5093008;28;20350;-66
2022/10/04 02:24:45;;;;;;;8.75;2.03;;;11.60;99.90;;;;;;5103743;28;20134;-65
2022/10/04 02:27:12;;;;;;;6.78;1.70;;;11.60;99.90;;;;;;5106477;28;20468;-67
2022/10/04 02:29:37;;;;;;;7.63;1.95;;;11.60;99.90;;;;;;5106192;28;20138;-65
2022/10/04 02:34:50;;;;;;;6.88;1.73;;;11.60;99.90;;;;;;5107853;28;20126;-65
2022/10/04 02:37:15;;;;;;;6.28;1.73;;;11.60;99.90;;;;;;5084535;28;20048;-66
2022/10/04 02:40:09;;;;;;;10.68;2.10;;;11.50;99.90;;;;;;5077437;28;20040;-65
2022/10/04 02:42:56;;;;;;;8.93;2.00;;;11.50;99.90;;;;;;5117485;28;20080;-66
2022/10/04 02:45:53;;;;;;;6.13;1.80;;;11.50;99.90;;;;;;5126880;28;20378;-65
2022/10/04 02:48:33;;;;;;;9.02;2.35;;;11.50;99.90;;;;;;5110412;28;20078;-67
2022/10/04 02:51:18;;;;;;;13.77;2.17;;;11.50;99.90;;;;;;5104278;28;20043;-67
2022/10/04 02:54:08;;;;;;;7.80;1.88;;;11.50;99.90;;;;;;5108784;28;20367;-66
2022/10/04 02:56:34;;;;;;;10.45;1.85;;;11.50;99.90;;;;;;5093770;28;20079;-65
2022/10/04 02:59:01;;;;;;;7.70;2.03;;;11.50;99.90;;;;;;5092428;28;20155;-66
2022/10/04 03:01:40;;;;;;;8.32;2.13;;;11.40;99.90;;;;;;5092046;27;20074;-67
2022/10/04 03:04:05;;;;;;;5.43;1.73;;;11.40;99.90;;;;;;5118631;27;20051;-65
2022/10/04 03:06:31;;;;;;;6.47;2.22;;;11.40;99.90;;;;;;5086145;27;20102;-66
2022/10/04 03:08:59;;;;;;;7.70;2.08;;;11.40;99.90;;;;;;5131335;27;20463;-66
2022/10/04 03:11:27;;;;;;;7.22;1.70;;;11.30;99.90;;;;;;5099277;28;20047;-66
2022/10/04 03:13:54;;;;;;;15.05;2.05;;;11.30;99.90;;;;;;5106965;27;20040;-65
2022/10/04 03:16:20;;;;;;;9.80;2.53;;;11.30;99.90;;;;;;5113249;27;20047;-66
2022/10/04 03:18:46;;;;;;;7.35;1.80;;;11.30;99.90;;;;;;5110296;27;20043;-66
2022/10/04 03:21:14;;;;;;;13.07;1.98;;;11.40;99.90;;;;;;5126216;27;20035;-65
2022/10/04 03:23:40;;;;;;;;;;;11.30;99.90;;;;;;5128404;27;20172;-67
2022/10/04 03:26:31;;;;;;;10.32;1.83;;;11.30;99.90;;;;;;5112527;27;20677;-66
2022/10/04 03:28:57;;;;;;;9.93;1.95;;;11.30;99.90;;;;;;5114648;27;20039;-65
2022/10/04 03:31:25;;;;;;;6.57;1.90;;;11.30;99.90;;;;;;5094166;28;20054;-65
2022/10/04 03:33:51;;;;;;;8.95;1.65;;;11.20;99.90;;;;;;5109228;28;20051;-66
2022/10/04 03:36:17;;;;;;;9.45;1.98;;;11.20;99.90;;;;;;5093290;28;20048;-66
2022/10/04 03:38:44;;;;;;;11.13;2.35;;;11.20;99.90;;;;;;5111829;28;20036;-65
2022/10/04 03:41:10;;;;;;;12.38;2.63;;;11.20;99.90;;;;;;5098328;28;20617;-67
2022/10/04 03:43:37;;;;;;;6.72;2.17;;;11.10;99.90;;;;;;5105242;28;20058;-67
2022/10/04 03:46:04;;;;;;;8.82;1.73;;;11.10;99.90;;;;;;5074645;28;20582;-65
2022/10/04 03:48:33;;;;;;;12.00;2.70;;;11.10;99.90;;;;;;5077384;28;20048;-66
2022/10/04 03:50:59;;;;;;;4.72;1.75;;;11.10;99.90;;;;;;5084458;28;20087;-66
2022/10/04 03:53:42;;;;;;;8.65;2.40;;;11.10;99.90;;;;;;5083401;28;20079;-66
2022/10/04 03:56:24;;;;;;;8.35;2.13;;;11.10;99.90;;;;;;5090756;28;20400;-65
2022/10/04 03:58:51;;;;;;;11.57;2.25;;;11.10;99.90;;;;;;5068323;28;20101;-67
2022/10/04 04:01:37;;;;;;;8.13;1.83;;;11.10;99.90;;;;;;5093605;28;20123;-67
2022/10/04 04:04:33;;;;;;;10.57;2.15;;;11.10;99.90;;;;;;5104341;28;20044;-65
2022/10/04 04:07:12;;;;;;;18.80;2.78;;;11.20;99.90;;;;;;5110368;28;20054;-65
2022/10/04 04:09:39;;;;;;;;;;;11.20;99.90;;;;;;5103101;28;20054;-66
2022/10/04 04:12:09;;;;;;;7.38;1.80;;;11.20;99.90;;;;;;5104046;28;19915;-66
2022/10/04 04:14:34;;;;;;;9.68;1.77;;;11.20;99.90;;;;;;5075947;28;20116;-65
2022/10/04 04:17:36;;;;;;;8.35;2.15;;;11.20;99.90;;;;;;5109956;28;20441;-65
2022/10/04 04:20:06;;;;;;;10.55;2.30;;;11.30;99.90;;;;;;5055537;28;20043;-66
2022/10/04 04:22:32;;;;;;;10.77;2.03;;;11.20;99.90;;;;;;5060072;28;20212;-66
2022/10/04 04:25:03;;;;;;;7.47;2.08;;;11.20;99.90;;;;;;5055912;28;20040;-66
2022/10/04 04:27:31;;;;;;;8.65;2.25;;;11.20;99.90;;;;;;5109929;28;20051;-66
2022/10/04 04:29:57;;;;;;;9.40;2.50;;;11.20;99.90;;;;;;5090098;28;20557;-65
2022/10/04 04:32:27;;;;;;;10.38;2.53;;;11.20;99.90;;;;;;5112151;27;20108;-65
2022/10/04 04:35:09;;;;;;;8.32;2.20;;;11.20;99.90;;;;;;5093296;27;20361;-65
2022/10/04 04:37:35;;;;;;;9.13;2.28;;;11.20;99.90;;;;;;5133945;27;20123;-66
2022/10/04 04:40:21;;;;;;;9.10;2.03;;;11.30;99.90;;;;;;5133184;27;20046;-64
2022/10/04 04:42:48;;;;;;;6.82;2.35;;;11.20;99.90;;;;;;5069963;27;20043;-65
2022/10/04 04:45:21;;;;;;;7.63;2.22;;;11.20;99.90;;;;;;5116363;27;20047;-64
2022/10/04 04:47:49;;;;;;;9.18;2.28;;;11.30;99.90;;;;;;5111090;27;20038;-65
2022/10/04 04:50:19;;;;;;;8.30;2.67;;;11.30;99.90;;;;;;5116534;27;20054;-65
2022/10/04 04:52:49;;;;;;;8.65;2.13;;;11.20;99.90;;;;;;5078425;27;20112;-66
2022/10/04 04:55:21;;;;;;;10.13;2.50;;;11.20;99.90;;;;;;5095120;27;20043;-66
2022/10/04 04:57:49;;;;;;;10.50;3.17;;;11.30;99.90;;;;;;5099611;27;20130;-65
2022/10/04 05:00:19;;;;;;;12.00;2.72;;;11.30;99.90;;;;;;5116899;27;20038;-66
2022/10/04 05:03:15;;;;;;;7.82;2.28;;;11.30;99.90;;;;;;5107516;27;20035;-66
2022/10/04 05:05:44;;;;;;;12.52;2.67;;;11.20;99.90;;;;;;5144020;27;20506;-66
2022/10/04 05:08:14;;;;;;;10.65;2.40;;;11.20;99.90;;;;;;5124090;27;20091;-66
2022/10/04 05:11:11;;;;;;;9.98;2.25;;;11.20;99.90;;;;;;5114139;27;20116;-65
2022/10/04 05:13:57;;;;;;;12.70;2.80;;;11.10;99.90;;;;;;5101044;27;20047;-65
2022/10/04 05:16:46;;;;;;;10.32;2.40;;;11.00;99.90;;;;;;5128515;27;20105;-65
2022/10/04 05:19:35;;;;;;;12.32;2.20;;;11.00;99.90;;;;;;5131916;27;20038;-66
2022/10/04 05:22:11;;;;;;;8.43;2.63;;;11.00;99.90;;;;;;5132393;27;20418;-66
2022/10/04 05:24:42;;;;;;;9.70;2.50;;;11.00;99.90;;;;;;5103592;27;20065;-66
2022/10/04 05:27:12;;;;;;;13.40;2.00;;;11.00;99.90;;;;;;5115251;27;20078;-66
2022/10/04 05:29:38;;;;;;;7.90;2.50;;;11.00;99.90;;;;;;5126374;27;20074;-65
2022/10/04 05:32:32;;;;;;;9.93;2.45;;;11.00;99.90;;;;;;5113743;27;20042;-67
2022/10/04 05:34:58;;;;;;;9.57;2.03;;;11.10;99.90;;;;;;5132364;27;20534;-66
2022/10/04 05:37:27;;;;;;;7.47;2.33;;;11.10;99.90;;;;;;5148992;27;20357;-67
2022/10/04 05:40:22;;;;;;;7.82;1.80;;;11.10;99.90;;;;;;5112386;27;20136;-66
2022/10/04 05:42:48;;;;;;;7.18;1.88;;;11.10;99.90;;;;;;5116902;27;20039;-67
2022/10/04 05:45:24;;;;;;;5.20;2.10;;;11.10;99.90;;;;;;5092134;27;20039;-65
2022/10/04 05:47:53;;;;;;;5.72;1.58;;;11.20;99.90;;;;;;5123510;27;20070;-67
2022/10/04 05:50:21;;;;;;;14.63;2.38;;;11.20;99.90;;;;;;5105491;27;20066;-67
2022/10/04 05:52:49;;;;;;;9.80;2.40;;;11.20;99.90;;;;;;5132599;27;20046;-67
2022/10/04 05:55:16;;;;;;;12.10;2.80;;;11.30;99.90;;;;;;5115329;27;20085;-66
2022/10/04 05:58:04;;;;;;;8.73;2.40;;;11.30;99.90;;;;;;5146578;27;20065;-65
2022/10/04 06:00:40;;;;;;;10.13;2.30;;;11.30;99.90;;;;;;5140363;27;20039;-65
2022/10/04 06:03:19;;;;;;;11.73;2.78;;;11.30;99.90;;;;;;5116358;27;20046;-66
2022/10/04 06:05:55;;;;;;;8.50;2.40;;;11.30;99.90;;;;;;5114792;27;20501;-66
2022/10/04 06:08:43;;;;;;;11.88;2.65;;;11.30;99.90;;;;;;5124951;27;20179;-65
2022/10/04 06:11:24;;;;;;;11.02;2.60;;;11.30;99.90;;;;;;5149438;27;20054;-66
2022/10/04 06:14:08;;;;;;;9.93;2.88;;;11.30;99.90;;;;;;5137809;27;20050;-66
2022/10/04 06:16:59;;;;;;;14.10;3.72;;;11.30;99.90;;;;;;5149684;27;20047;-65
2022/10/04 06:19:53;;;;;;;8.05;2.47;;;11.30;99.90;;;;;;5146411;27;20062;-65
2022/10/04 06:22:19;;;;;;;11.57;2.70;;;11.20;99.90;;;;;;5115433;27;20084;-70
2022/10/04 06:24:50;;;;;;;9.13;2.45;;;11.20;99.90;;;;;;5148148;27;20539;-70
2022/10/04 06:27:34;;;;;;;11.98;2.92;;;11.30;99.90;;;;;;5108139;27;20065;-69
2022/10/04 06:30:16;;;;;;;9.98;2.85;;;11.30;99.90;;;;;;5141952;27;20619;-71
2022/10/04 06:33:00;;;;;;;12.40;4.07;;;11.30;99.90;;;;;;5109215;28;20659;-69
2022/10/04 06:35:44;;;;;;;13.63;2.70;;;11.30;99.90;;;;;;5118579;27;20103;-70
2022/10/04 06:38:32;;;;;;;11.80;2.95;;;11.40;99.90;;;;;;5129881;27;20045;-70
2022/10/04 06:41:19;;;;;;;14.73;2.70;;;11.50;99.90;;;;;;5148182;27;20043;-70
2022/10/04 06:44:07;;;;;;;11.30;2.53;;;11.50;99.90;;;;;;5141309;27;20035;-69
2022/10/04 06:46:33;;;;;;;;;;;11.50;99.90;;;;;;5150947;27;20066;-70
2022/10/04 06:49:29;;;;;;;15.38;3.45;;;11.50;99.90;;;;;;5146176;27;19962;-69
2022/10/04 06:52:10;;;;;;;9.50;2.80;;;11.60;99.90;;;;;;5128577;27;20475;-70
2022/10/04 06:55:03;;;;;;;9.45;2.72;;;11.70;99.90;;;;;;5109037;27;20051;-71
2022/10/04 06:57:30;;;;;;;9.40;2.92;;;11.70;99.90;;;;;;5107481;27;20046;-71
2022/10/04 07:00:04;;;;;;;15.35;4.72;;;11.70;99.90;;;;;;5149147;27;20631;-71
2022/10/04 07:02:32;;;;;;;11.70;3.22;;;11.70;99.90;;;;;;5110872;27;20412;-71
2022/10/04 07:05:03;;;;;;;;;;;11.80;99.90;;;;;;5128658;27;20113;-71
2022/10/04 07:07:36;;;;;;;12.88;3.17;;;11.90;99.90;;;;;;5125730;27;19912;-71
2022/10/04 07:10:17;;;;;;;10.05;3.22;;;12.00;99.90;;;;;;5128113;27;20601;-70
2022/10/04 07:12:46;;;;;;;12.38;2.50;;;12.10;99.90;;;;;;5135325;27;20491;-70
2022/10/04 07:15:24;;;;;;;10.70;2.88;;;12.10;99.90;;;;;;5128437;27;20130;-70
2022/10/04 07:17:50;;;;;;;12.50;3.08;;;12.20;99.90;;;;;;5113528;27;20049;-70
2022/10/04 07:20:25;;;;;;;9.93;2.60;;;12.20;99.90;;;;;;5132579;27;20126;-70
2022/10/04 07:22:58;;;;;;;12.60;3.47;;;12.30;99.90;;;;;;5093400;27;20061;-70
2022/10/04 07:25:34;;;;;;;14.35;3.60;;;12.30;99.90;;;;;;5129114;27;20057;-71
2022/10/04 07:31:12;;;;;;;8.70;2.95;;;12.50;99.90;;;;;;5153741;27;20034;-71
2022/10/04 07:33:49;;;;;;;14.82;3.13;;;12.60;99.90;;;;;;5094098;27;20100;-70
2022/10/04 07:36:18;;;;;;;8.82;3.03;;;12.70;99.90;;;;;;5093191;27;20078;-70
2022/10/04 07:38:49;;;;;;;11.43;2.88;;;12.60;99.90;;;;;;5127679;27;20069;-71
2022/10/04 07:41:49;;;;;;;16.52;3.88;;;12.70;99.90;;;;;;5101786;27;20735;-71
2022/10/04 07:44:17;;;;;;;9.65;3.58;;;12.70;99.90;;;;;;5109201;27;20049;-73
2022/10/04 07:46:51;;;;;;;11.90;3.10;;;12.80;99.90;;;;;;5113791;27;20533;-70
2022/10/04 07:49:21;;;;;;;13.35;3.33;;;12.80;99.90;;;;;;5089960;27;20096;-70
2022/10/04 07:52:24;;;;;;;5.63;2.70;;;12.80;99.90;;;;;;5097720;27;20073;-71
2022/10/04 07:55:01;;;;;;;12.45;3.13;;;12.90;99.90;;;;;;5130206;27;20594;-70
2022/10/04 07:57:36;;;;;;;13.80;2.92;;;13.00;99.90;;;;;;5129982;27;20047;-70
2022/10/04 08:00:35;;;;;;;10.73;2.75;;;13.00;99.90;;;;;;5107358;27;20042;-71
2022/10/04 08:03:22;;;;;;;13.20;3.20;;;13.00;99.90;;;;;;5122578;27;20043;-71
2022/10/04 08:05:57;;;;;;;8.95;3.50;;;13.10;99.90;;;;;;5142544;27;20486;-70
2022/10/04 08:08:35;;;;;;;8.27;2.58;;;13.10;99.90;;;;;;5145340;27;20166;-71
2022/10/04 08:11:39;;;;;;;13.88;3.97;;;13.20;99.90;;;;;;5151004;27;20051;-70
2022/10/04 08:14:27;;;;;;;9.90;2.75;;;13.30;99.90;;;;;;5145594;27;20122;-71
2022/10/04 08:17:07;;;;;;;11.70;2.80;;;13.40;99.90;;;;;;5152592;27;20126;-71
2022/10/04 08:20:01;;;;;;;11.07;2.58;;;13.50;99.90;;;;;;5121576;27;20039;-71
2022/10/04 08:22:52;;;;;;;10.13;3.17;;;13.50;99.90;;;;;;5129562;27;20374;-71
2022/10/04 08:25:47;;;;;;;11.05;2.60;;;13.70;99.90;;;;;;5152049;27;20042;-71
2022/10/04 08:31:08;;;;;;;6.00;2.28;;;13.90;99.90;;;;;;5131657;27;20078;-72
2022/10/04 08:33:56;;;;;;;12.48;3.20;;;13.90;99.90;;;;;;5141614;27;20055;-71
2022/10/04 08:36:21;;;;;;;;;;;14.00;99.90;;;;;;5125672;27;20070;-68
2022/10/04 08:38:58;;;;;;;13.73;3.05;;;13.90;99.90;;;;;;5152724;27;19914;-70
2022/10/04 08:41:55;;;;;;;11.27;2.60;;;13.90;99.90;;;;;;5114909;27;20043;-70
2022/10/04 08:44:59;;;;;;;12.77;2.78;;;13.90;99.90;;;;;;5151457;27;20122;-70
2022/10/04 08:48:02;;;;;;;11.82;3.00;;;13.90;99.90;;;;;;5123475;27;20268;-70
2022/10/04 08:50:33;;;;;;;6.28;2.33;;;13.90;99.90;;;;;;5128724;27;20066;-70
2022/10/04 08:53:31;;;;;;;8.68;2.70;;;13.90;99.90;;;;;;5115710;27;20489;-70
2022/10/04 08:56:22;;;;;;;13.50;2.80;;;13.90;99.90;;;;;;5149078;27;20057;-70
2022/10/04 08:59:39;;;;;;;10.93;2.63;;;13.90;99.90;;;;;;5118589;27;20042;-70
2022/10/04 09:02:36;;;;;;;12.27;3.43;;;14.00;99.90;;;;;;5085246;27;20043;-70
2022/10/04 09:05:05;;;;;;;11.48;2.50;;;14.00;99.90;;;;;;5126561;27;20284;-70
2022/10/04 09:07:48;;;;;;;12.25;2.80;;;14.00;99.90;;;;;;5131744;27;20519;-70
2022/10/04 09:10:21;;;;;;;11.50;2.50;;;14.00;99.90;;;;;;5147606;27;20046;-70
2022/10/04 09:13:12;;;;;;;9.45;2.47;;;13.90;99.90;;;;;;5112166;27;20043;-70
2022/10/04 09:15:53;;;;;;;12.70;2.28;;;14.00;99.90;;;;;;5151414;27;20054;-70
2022/10/04 09:18:59;;;;;;;14.63;2.45;;;13.90;99.90;;;;;;5113922;27;20051;-70
2022/10/04 09:21:52;;;;;;;10.05;2.22;;;14.00;99.90;;;;;;5144782;27;20046;-70
2022/10/04 09:24:33;;;;;;;10.73;2.40;;;14.20;99.90;;;;;;5141569;27;20042;-69
2022/10/04 09:27:27;;;;;;;11.80;3.08;;;14.30;99.90;;;;;;5127776;27;20050;-69
2022/10/04 09:30:14;;;;;;;11.35;2.45;;;14.50;99.40;;;;;;5141891;27;20070;-69
2022/10/04 09:32:58;;;;;;;12.50;3.72;;;14.60;99.40;;;;;;5148450;27;20106;-69
2022/10/04 09:35:42;;;;;;;12.60;3.10;;;14.70;98.50;;;;;;5124173;27;20486;-70
2022/10/04 09:38:20;;;;;;;10.90;2.90;;;14.70;99.00;;;;;;5145791;27;20095;-69
2022/10/04 09:41:10;;;;;;;9.25;3.00;;;14.80;98.80;;;;;;5126327;27;20100;-68
2022/10/04 09:43:48;;;;;;;11.05;2.53;;;14.80;98.90;;;;;;5112142;27;20047;-68
2022/10/04 09:46:16;;;;;;;10.20;3.10;;;14.90;98.50;;;;;;5148684;27;20227;-69
2022/10/04 09:49:06;;;;;;;11.55;2.70;;;15.00;97.90;;;;;;5150231;27;20077;-71
2022/10/04 09:51:41;;;;;;;9.50;2.80;;;15.00;98.10;;;;;;5141173;27;20512;-69
2022/10/04 09:54:36;;;;;;;16.40;3.28;;;15.20;97.60;;;;;;5103712;27;20394;-69
2022/10/04 09:57:08;;;;;;;12.45;3.50;;;15.40;97.00;;;;;;5088556;27;20095;-70
2022/10/04 10:00:08;;;;;;;11.77;3.20;;;15.50;96.50;;;;;;5104812;27;20130;-69
2022/10/04 10:03:10;;;;;;;6.93;2.40;;;15.50;96.00;;;;;;5129971;27;20510;-69
2022/10/04 10:05:57;;;;;;;8.45;2.88;;;15.70;96.20;;;;;;5135724;27;20046;-69
2022/10/04 10:08:29;;;;;;;10.55;3.22;;;15.80;95.20;;;;;;5132557;27;20133;-69
2022/10/04 10:14:04;;;;;;;13.07;2.70;;;16.00;95.00;;;;;;5132713;27;20057;-69
2022/10/04 10:16:40;;;;;;;10.85;1.98;;;16.20;94.70;;;;;;5148222;27;20050;-71
2022/10/04 10:19:31;;;;;;;6.63;2.17;;;16.40;95.10;;;;;;5150709;27;20042;-71
2022/10/04 10:22:27;;;;;;;11.30;2.22;;;16.70;94.20;;;;;;5129609;27;20066;-71
2022/10/04 10:25:15;;;;;;;7.45;1.75;;;16.80;92.60;;;;;;5140118;27;20039;-71
2022/10/04 10:27:59;;;;;;;8.25;1.90;;;16.80;92.90;;;;;;5125158;27;20121;-71
2022/10/04 10:30:40;;;;;;;7.40;1.70;;;16.80;91.40;;;;;;5128602;27;20047;-71
2022/10/04 10:33:24;;;;;;;6.75;1.85;;;17.00;92.50;;;;;;5143975;27;20054;-71
2022/10/04 10:36:17;;;;;;;10.50;2.47;;;17.10;91.70;;;;;;5147768;27;20062;-71
2022/10/04 10:39:01;;;;;;;8.23;2.00;;;17.30;91.70;;;;;;5115041;27;20051;-70
2022/10/04 10:41:36;;;;;;;6.93;1.60;;;17.40;90.60;;;;;;5130709;27;20604;-71
2022/10/04 10:44:17;;;;;;;8.73;2.00;;;17.80;90.70;;;;;;5130973;27;20522;-71
2022/10/04 10:47:10;;;;;;;7.00;1.60;;;18.80;86.90;;;;;;5111319;27;20058;-70
2022/10/04 10:50:16;;;;;;;6.93;2.03;;;20.20;78.80;;;;;;5098741;27;20047;-71
2022/10/04 10:53:06;;;;;;;5.25;1.40;;;22.70;70.40;;;;;;5116230;27;20478;-71
2022/10/04 10:56:01;;;;;;;8.50;1.88;;;24.00;60.60;;;;;;5150161;27;20043;-71
2022/10/04 10:58:39;;;;;;;11.00;2.15;;;25.10;55.10;;;;;;5110144;28;20054;-71
2022/10/04 11:01:39;;;;;;;5.55;1.80;;;26.00;54.60;;;;;;5125630;27;20126;-72
2022/10/04 11:04:14;;;;;;;6.13;1.65;;;26.80;49.80;;;;;;5111954;27;20047;-70
2022/10/04 11:06:49;;;;;;;8.65;1.70;;;26.30;52.90;;;;;;5110192;28;20134;-71
2022/10/04 11:09:28;;;;;;;8.77;2.25;;;23.00;62.20;;;;;;5123913;27;20074;-72
2022/10/04 11:12:31;;;;;;;5.15;1.52;;;23.70;60.40;;;;;;5095152;27;20070;-71
2022/10/04 11:15:14;;;;;;;6.82;1.50;;;25.50;54.00;;;;;;5144699;27;20049;-71
2022/10/04 11:18:10;;;;;;;8.55;2.38;;;26.40;52.60;;;;;;5144347;27;20123;-71
2022/10/04 11:21:00;;;;;;;8.80;1.90;;;22.80;61.80;;;;;;5116190;27;20081;-71
2022/10/04 11:23:26;;;;;;;10.20;2.47;;;21.20;66.10;;;;;;5121199;27;20059;-71
2022/10/04 11:26:09;;;;;;;5.93;1.80;;;23.20;60.40;;;;;;5148080;27;20490;-70
2022/10/04 11:28:45;;;;;;;5.57;1.70;;;23.10;58.40;;;;;;5116028;27;20110;-70
2022/10/04 11:31:50;;;;;;;5.97;1.75;;;23.50;58.20;;;;;;5118632;27;20046;-71
2022/10/04 11:34:49;;;;;;;9.43;2.03;;;23.20;59.20;;;;;;5133750;27;20062;-70
2022/10/04 11:37:15;;;;;;;9.60;2.40;;;22.10;64.10;;;;;;5107386;27;20123;-71
2022/10/04 11:39:56;;;;;;;11.43;2.72;;;21.40;63.80;;;;;;5153469;27;20129;-71
2022/10/04 11:42:41;;;;;;;9.95;2.35;;;21.20;64.70;;;;;;5151798;27;20047;-71
2022/10/04 11:45:32;;;;;;;7.90;2.30;;;20.70;68.20;;;;;;5145944;27;20053;-70
2022/10/04 11:48:23;;;;;;;5.13;1.90;;;20.70;68.30;;;;;;5153154;27;20039;-71
2022/10/04 11:51:03;;;;;;;6.30;1.65;;;21.80;61.80;;;;;;5133795;27;20455;-72
2022/10/04 11:53:46;;;;;;;5.07;1.90;;;21.60;59.90;;;;;;5119124;27;20057;-71
2022/10/04 11:56:55;;;;;;;6.35;2.35;;;22.00;59.70;;;;;;5114461;27;20043;-71
2022/10/04 11:59:45;;;;;;;7.60;1.77;;;21.50;60.10;;;;;;5103605;27;20143;-71
2022/10/04 12:03:04;;;;;;;6.55;2.00;;;20.80;65.40;;;;;;5151894;27;20035;-71
2022/10/04 12:06:15;;;;;;;6.78;2.20;;;21.00;64.10;;;;;;5119074;27;20083;-70
2022/10/04 12:09:13;;;;;;;5.70;2.10;;;22.20;60.10;;;;;;5098016;27;20043;-70
2022/10/04 12:14:52;;;;;;;6.10;2.35;;;23.50;56.90;;;;;;5151915;27;20095;-71
2022/10/04 12:17:55;;;;;;;7.70;2.28;;;23.20;56.10;;;;;;5132340;27;20047;-71
2022/10/04 12:20:59;;;;;;;8.80;2.53;;;23.10;56.90;;;;;;5111588;27;20451;-70
2022/10/04 12:23:43;;;;;;;6.45;1.75;;;22.20;59.40;;;;;;5147954;27;20133;-71
2022/10/04 12:26:37;;;;;;;6.22;1.80;;;22.90;59.40;;;;;;5144931;27;20137;-71
2022/10/04 12:29:44;;;;;;;8.32;2.03;;;23.20;57.00;;;;;;5139396;27;20059;-72
2022/10/04 12:32:31;;;;;;;6.70;1.77;;;22.80;56.90;;;;;;5147193;27;20367;-70
2022/10/04 12:35:21;;;;;;;8.20;1.75;;;23.50;56.40;;;;;;5132016;27;20551;-70
2022/10/04 12:38:12;;;;;;;4.85;1.83;;;24.00;55.10;;;;;;5133630;27;20454;-71
2022/10/04 12:40:51;;;;;;;6.20;1.80;;;24.50;53.30;;;;;;5139989;27;20444;-71
2022/10/04 12:43:39;;;;;;;5.28;2.03;;;24.20;53.50;;;;;;5147659;27;20125;-69
2022/10/04 12:46:23;;;;;;;5.18;1.98;;;24.30;55.00;;;;;;5133824;27;20042;-70
2022/10/04 12:48:53;;;;;;;7.75;2.65;;;24.60;52.90;;;;;;5144348;27;20039;-71
2022/10/04 12:51:36;;;;;;;7.18;2.30;;;24.40;55.60;;;;;;5148906;27;20129;-70
2022/10/04 12:54:34;;;;;;;5.25;2.30;;;24.60;54.20;;;;;;5114026;27;20047;-70
2022/10/04 12:57:36;;;;;;;5.63;2.08;;;24.50;53.60;;;;;;5133663;27;20047;-71
2022/10/04 13:00:13;;;;;;;7.68;2.13;;;24.80;51.70;;;;;;5127050;27;20150;-70
2022/10/04 13:03:07;;;;;;;5.18;2.38;;;24.10;53.30;;;;;;5127470;27;20058;-71
2022/10/04 13:05:54;;;;;;;4.97;1.83;;;24.30;56.00;;;;;;5147477;27;20054;-71
2022/10/04 13:08:42;;;;;;;8.50;2.60;;;24.70;53.30;;;;;;5096364;27;20038;-71
2022/10/04 13:11:20;;;;;;;;;;;24.00;54.40;;;;;;5096384;27;20047;-70
2022/10/04 13:14:04;;;;;;;5.00;2.10;;;23.90;55.40;;;;;;5133422;27;20005;-71
2022/10/04 13:16:49;;;;;;;5.30;1.85;;;24.40;53.70;;;;;;5115622;27;20103;-71
2022/10/04 13:19:22;;;;;;;7.78;1.90;;;24.40;52.00;;;;;;5127286;27;20049;-71
2022/10/04 13:22:04;;;;;;;5.75;1.75;;;23.70;54.00;;;;;;5112221;27;20556;-71
2022/10/04 13:24:53;;;;;;;4.95;2.00;;;23.00;56.60;;;;;;5131009;27;20049;-71
2022/10/04 13:27:21;;;;;;;6.10;1.75;;;22.20;59.00;;;;;;5123984;27;20532;-69
2022/10/04 13:30:01;;;;;;;5.32;1.90;;;22.30;60.10;;;;;;5113315;27;20087;-71
2022/10/04 13:32:32;;;;;;;5.40;2.08;;;22.00;61.60;;;;;;5089250;27;20103;-71
2022/10/04 13:34:58;;;;;;;6.60;2.08;;;21.70;62.40;;;;;;5133157;27;20051;-71
2022/10/04 13:37:43;;;;;;;7.82;2.45;;;21.00;64.90;;;;;;5125798;27;20612;-70
2022/10/04 13:40:27;;;;;;;5.53;1.90;;;20.80;66.70;;;;;;5131143;27;20118;-70
2022/10/04 13:42:59;;;;;;;6.80;2.08;;;20.30;67.90;;;;;;5112028;27;20039;-70
2022/10/04 13:45:47;;;;;;;7.18;1.98;;;20.00;70.00;;;;;;5128582;27;20043;-71
2022/10/04 13:48:21;;;;;;;5.53;2.30;;;20.00;70.00;;;;;;5132979;27;20042;-69
2022/10/04 13:51:14;;;;;;;5.70;1.83;;;19.90;72.10;;;;;;5126063;27;20043;-70
2022/10/04 13:56:58;;;;;;;5.60;2.10;;;19.80;70.60;;;;;;5115296;27;20663;-69
2022/10/04 13:59:39;;;;;;;7.82;2.13;;;19.70;70.60;;;;;;5125291;27;20042;-70
2022/10/04 14:02:21;;;;;;;5.53;1.80;;;19.60;71.30;;;;;;5111914;27;20364;-70
2022/10/04 14:04:56;;;;;;;10.43;2.30;;;19.70;71.60;;;;;;5127690;27;20070;-70
2022/10/04 14:07:29;;;;;;;7.10;2.30;;;19.70;72.70;;;;;;5125628;27;20776;-70